Time;durP1;ratioP1;P1;durP2;ratioP2;P2;SDS_P1;SDS_P2;PMS_P1;PMS_P2;Temp;Humidity;BMP_temperature;BMP_pressure;BME280_temperature;BME280_humidity;BME280_pressure;Samples;Min_cycle;Max_cycle;Signal;HPM_P1;HPM_P2
2023/08/09 00:00:35;;;;;;;6.30;1.65;;;12.20;99.90;;;;;;5099181;28;20036;-59
2023/08/09 00:03:02;;;;;;;5.90;1.65;;;12.10;99.90;;;;;;5096436;28;20044;-57
2023/08/09 00:05:27;;;;;;;5.60;1.60;;;12.20;99.90;;;;;;5098474;28;20047;-59
2023/08/09 00:07:53;;;;;;;7.45;1.95;;;12.20;99.90;;;;;;5096895;28;20048;-59
2023/08/09 00:10:19;;;;;;;4.68;1.50;;;12.20;99.90;;;;;;5097926;28;20039;-59
2023/08/09 00:12:45;;;;;;;4.63;1.50;;;12.20;99.90;;;;;;5098230;28;20052;-59
2023/08/09 00:15:11;;;;;;;5.45;1.48;;;12.20;99.90;;;;;;5096783;28;20099;-60
2023/08/09 00:17:37;;;;;;;6.45;1.50;;;12.10;99.90;;;;;;5098823;28;20051;-60
2023/08/09 00:20:04;;;;;;;4.75;1.38;;;12.10;99.90;;;;;;5096306;28;20040;-60
2023/08/09 00:22:30;;;;;;;6.65;1.80;;;12.10;99.90;;;;;;5098455;28;20044;-60
2023/08/09 00:25:00;;;;;;;5.25;1.40;;;12.00;99.90;;;;;;5096660;28;20048;-59
2023/08/09 00:27:28;;;;;;;5.18;1.50;;;12.10;99.90;;;;;;5098139;28;20040;-60
2023/08/09 00:29:54;;;;;;;7.75;1.40;;;12.10;99.90;;;;;;5097886;28;20137;-58
2023/08/09 00:32:20;;;;;;;5.45;1.30;;;11.90;99.90;;;;;;5096545;28;20099;-60
2023/08/09 00:34:45;;;;;;;5.47;1.55;;;11.90;99.90;;;;;;5098647;28;20082;-60
2023/08/09 00:37:11;;;;;;;5.60;1.80;;;12.00;99.90;;;;;;5096179;28;20068;-60
2023/08/09 00:39:37;;;;;;;4.10;1.48;;;12.00;99.90;;;;;;5102200;28;20491;-60
2023/08/09 00:42:04;;;;;;;6.53;1.63;;;11.90;99.90;;;;;;5100290;28;20575;-59
2023/08/09 00:44:29;;;;;;;7.35;1.90;;;11.90;99.90;;;;;;5101781;28;20066;-60
2023/08/09 00:46:55;;;;;;;7.07;1.50;;;11.80;99.90;;;;;;5101127;28;20052;-59
2023/08/09 00:49:21;;;;;;;4.88;1.50;;;11.80;99.90;;;;;;5100130;28;20123;-59
2023/08/09 00:51:48;;;;;;;4.57;1.58;;;11.70;99.90;;;;;;5102348;28;20036;-60
2023/08/09 00:54:14;;;;;;;4.15;1.60;;;11.80;99.90;;;;;;5081595;28;20137;-59
2023/08/09 00:56:40;;;;;;;4.47;1.50;;;11.70;99.90;;;;;;5091842;28;20074;-59
2023/08/09 00:59:06;;;;;;;6.05;1.95;;;11.70;99.90;;;;;;5079765;28;20045;-60
2023/08/09 01:01:32;;;;;;;4.60;1.50;;;11.70;99.90;;;;;;5046550;28;20180;-59
2023/08/09 01:03:58;;;;;;;5.65;1.40;;;11.70;99.90;;;;;;5080595;28;20052;-60
2023/08/09 01:06:32;;;;;;;6.32;1.50;;;11.60;99.90;;;;;;5062260;28;20051;-60
2023/08/09 01:09:14;;;;;;;4.55;1.73;;;11.60;99.90;;;;;;5081543;28;20060;-60
2023/08/09 01:11:48;;;;;;;8.00;1.60;;;11.60;99.90;;;;;;5061556;28;20127;-60
2023/08/09 01:14:17;;;;;;;4.65;1.40;;;11.70;99.90;;;;;;5080709;28;20044;-59
2023/08/09 01:16:44;;;;;;;9.93;1.65;;;11.70;99.90;;;;;;5080136;28;20045;-59
2023/08/09 01:19:20;;;;;;;5.90;1.55;;;11.70;99.90;;;;;;5079685;28;20075;-59
2023/08/09 01:21:46;;;;;;;5.50;1.27;;;11.60;99.90;;;;;;5081308;28;20051;-59
2023/08/09 01:24:12;;;;;;;4.07;1.25;;;11.60;99.90;;;;;;5078826;28;20063;-59
2023/08/09 01:26:39;;;;;;;5.68;1.60;;;11.50;99.90;;;;;;5081075;28;20095;-59
2023/08/09 01:29:05;;;;;;;4.13;1.30;;;11.60;99.90;;;;;;5079422;28;20033;-59
2023/08/09 01:31:31;;;;;;;5.10;1.63;;;11.70;99.90;;;;;;5080444;28;20044;-60
2023/08/09 01:33:56;;;;;;;4.45;1.60;;;11.70;99.90;;;;;;5080127;28;20512;-58
2023/08/09 01:36:28;;;;;;;3.97;1.40;;;11.60;99.90;;;;;;5079459;28;20044;-59
2023/08/09 01:39:01;;;;;;;6.15;1.40;;;11.60;99.90;;;;;;5081138;28;20139;-60
2023/08/09 01:41:28;;;;;;;5.78;1.35;;;11.60;99.90;;;;;;5079030;28;20316;-59
2023/08/09 01:43:56;;;;;;;4.90;1.50;;;11.60;99.90;;;;;;5080499;28;20040;-59
2023/08/09 01:46:23;;;;;;;5.72;1.50;;;11.60;99.90;;;;;;5078985;28;20079;-61
2023/08/09 01:48:49;;;;;;;6.45;1.60;;;11.60;99.90;;;;;;5079495;28;20488;-60
2023/08/09 01:51:14;;;;;;;8.52;2.13;;;11.60;99.90;;;;;;5080361;28;20045;-59
2023/08/09 01:53:40;;;;;;;4.72;1.60;;;11.70;99.90;;;;;;5078314;28;20041;-60
2023/08/09 01:56:06;;;;;;;4.13;1.40;;;11.60;99.90;;;;;;5086154;28;20110;-59
2023/08/09 01:58:32;;;;;;;7.65;1.58;;;11.60;99.90;;;;;;5098369;28;20044;-60
2023/08/09 02:00:57;;;;;;;5.00;1.20;;;11.60;99.90;;;;;;5082338;28;20040;-60
2023/08/09 02:03:25;;;;;;;6.43;1.88;;;11.50;99.90;;;;;;5098929;28;20089;-60
2023/08/09 02:05:51;;;;;;;8.82;1.63;;;11.50;99.90;;;;;;5081654;28;20040;-61
2023/08/09 02:08:17;;;;;;;4.85;1.48;;;11.70;99.90;;;;;;5100114;28;20051;-60
2023/08/09 02:10:43;;;;;;;6.53;1.30;;;11.60;99.90;;;;;;5098770;28;20040;-60
2023/08/09 02:13:09;;;;;;;6.53;1.38;;;11.50;99.90;;;;;;5100807;28;20067;-60
2023/08/09 02:15:35;;;;;;;6.45;1.92;;;11.50;99.90;;;;;;5098039;28;20595;-59
2023/08/09 02:18:01;;;;;;;5.35;2.30;;;11.60;99.90;;;;;;5100104;28;20051;-59
2023/08/09 02:20:28;;;;;;;5.20;1.58;;;11.50;99.90;;;;;;5098563;28;20040;-59
2023/08/09 02:22:53;;;;;;;8.18;1.70;;;11.40;99.90;;;;;;5099707;28;20510;-59
2023/08/09 02:25:19;;;;;;;5.22;1.50;;;11.50;99.90;;;;;;5099468;28;20040;-59
2023/08/09 02:27:46;;;;;;;6.00;1.40;;;11.40;99.90;;;;;;5098673;28;20035;-60
2023/08/09 02:30:12;;;;;;;4.63;1.55;;;11.40;99.90;;;;;;5100388;28;20123;-60
2023/08/09 02:32:38;;;;;;;4.65;1.40;;;11.40;99.90;;;;;;5097748;28;20052;-59
2023/08/09 02:35:05;;;;;;;6.50;1.65;;;11.50;99.90;;;;;;5100062;28;20036;-60
2023/08/09 02:37:31;;;;;;;10.30;1.92;;;11.40;99.90;;;;;;5098226;28;20048;-60
2023/08/09 02:39:57;;;;;;;6.35;1.45;;;11.50;99.90;;;;;;5099643;28;20503;-60
2023/08/09 02:42:23;;;;;;;5.53;1.60;;;11.50;99.90;;;;;;5099045;28;20040;-59
2023/08/09 02:44:49;;;;;;;5.63;1.38;;;11.50;99.90;;;;;;5098420;28;20051;-59
2023/08/09 02:47:15;;;;;;;7.28;1.80;;;11.40;99.90;;;;;;5099989;28;20047;-59
2023/08/09 02:49:40;;;;;;;5.55;1.80;;;11.40;99.90;;;;;;5097342;28;20051;-60
2023/08/09 02:52:06;;;;;;;4.93;1.52;;;11.50;99.90;;;;;;5099783;28;20347;-60
2023/08/09 02:54:32;;;;;;;6.50;1.75;;;11.50;99.90;;;;;;5097440;28;20055;-59
2023/08/09 02:56:58;;;;;;;5.35;1.75;;;11.50;99.90;;;;;;5086615;28;20040;-60
2023/08/09 02:59:23;;;;;;;4.00;1.50;;;11.40;99.90;;;;;;5078100;28;20041;-59
2023/08/09 03:01:49;;;;;;;6.72;1.60;;;11.40;99.90;;;;;;5077786;28;20048;-60
2023/08/09 03:04:15;;;;;;;5.47;1.52;;;11.30;99.90;;;;;;5079397;28;20063;-59
2023/08/09 03:06:40;;;;;;;3.83;1.38;;;11.40;99.90;;;;;;5077077;28;20083;-60
2023/08/09 03:09:06;;;;;;;7.13;1.55;;;11.40;99.90;;;;;;5079408;28;20038;-59
2023/08/09 03:11:32;;;;;;;4.65;1.70;;;11.40;99.90;;;;;;5076811;28;20068;-59
2023/08/09 03:13:57;;;;;;;4.90;1.50;;;11.30;99.90;;;;;;5079014;28;20102;-59
2023/08/09 03:16:23;;;;;;;5.00;1.90;;;11.40;99.90;;;;;;5077347;28;20071;-60
2023/08/09 03:18:49;;;;;;;5.82;1.40;;;11.30;99.90;;;;;;5077850;28;20040;-60
2023/08/09 03:21:16;;;;;;;4.10;1.48;;;11.40;99.90;;;;;;5078841;28;20056;-61
2023/08/09 03:23:41;;;;;;;6.53;1.77;;;11.30;99.90;;;;;;5058797;28;20045;-60
2023/08/09 03:26:07;;;;;;;5.95;1.70;;;11.40;99.90;;;;;;5078929;28;20048;-59
2023/08/09 03:28:33;;;;;;;5.35;1.75;;;11.40;99.90;;;;;;5076523;28;20135;-60
2023/08/09 03:30:59;;;;;;;4.85;1.55;;;11.20;99.90;;;;;;5078706;28;20044;-60
2023/08/09 03:33:25;;;;;;;4.93;1.60;;;11.30;99.90;;;;;;5077186;28;20051;-60
2023/08/09 03:35:51;;;;;;;4.57;1.30;;;11.30;99.90;;;;;;5078102;28;20037;-59
2023/08/09 03:38:17;;;;;;;7.95;1.70;;;11.30;99.90;;;;;;5078297;28;20043;-59
2023/08/09 03:40:43;;;;;;;7.68;2.30;;;11.20;99.90;;;;;;5076544;28;20041;-60
2023/08/09 03:43:08;;;;;;;3.78;1.35;;;11.20;99.90;;;;;;5079182;28;20855;-60
2023/08/09 03:45:34;;;;;;;4.75;1.50;;;11.30;99.90;;;;;;5076234;28;20040;-60
2023/08/09 03:48:00;;;;;;;6.47;1.70;;;11.30;99.90;;;;;;5078513;28;20084;-60
2023/08/09 03:50:26;;;;;;;4.82;1.65;;;11.20;99.90;;;;;;5076612;28;20040;-60
2023/08/09 03:52:52;;;;;;;6.47;1.90;;;11.20;99.90;;;;;;5078100;28;20052;-60
2023/08/09 03:55:18;;;;;;;6.18;1.60;;;11.10;99.90;;;;;;5077350;28;20064;-59
2023/08/09 03:57:44;;;;;;;6.68;1.63;;;11.10;99.90;;;;;;5096358;28;20543;-60
2023/08/09 04:00:17;;;;;;;6.15;1.63;;;11.20;99.90;;;;;;5098767;28;20050;-60
2023/08/09 04:02:44;;;;;;;4.05;1.20;;;11.20;99.90;;;;;;5096343;28;20040;-59
2023/08/09 04:05:10;;;;;;;7.70;1.70;;;11.10;99.90;;;;;;5098790;28;20067;-60
2023/08/09 04:07:36;;;;;;;5.97;2.17;;;11.10;99.90;;;;;;5097003;28;20047;-58
2023/08/09 04:10:05;;;;;;;5.47;1.60;;;11.10;99.90;;;;;;5098048;28;20059;-59
2023/08/09 04:12:31;;;;;;;6.35;1.58;;;11.10;99.90;;;;;;5100245;28;20056;-59
2023/08/09 04:14:56;;;;;;;4.95;1.55;;;11.10;99.90;;;;;;5083183;28;20449;-59
2023/08/09 04:17:22;;;;;;;6.10;1.63;;;11.10;99.90;;;;;;5102768;28;20384;-59
2023/08/09 04:19:48;;;;;;;5.55;1.60;;;11.10;99.90;;;;;;5100284;28;20043;-59
2023/08/09 04:22:14;;;;;;;4.00;1.60;;;11.10;99.90;;;;;;5102471;28;20055;-59
2023/08/09 04:24:39;;;;;;;8.43;2.05;;;11.10;99.90;;;;;;5100520;28;20040;-60
2023/08/09 04:27:06;;;;;;;5.13;1.60;;;11.10;99.90;;;;;;5102354;28;20108;-60
2023/08/09 04:29:32;;;;;;;5.18;1.70;;;11.20;99.90;;;;;;5101587;28;20044;-59
2023/08/09 04:31:57;;;;;;;4.82;1.60;;;11.20;99.90;;;;;;5101183;28;20055;-60
2023/08/09 04:34:23;;;;;;;5.20;1.35;;;11.20;99.90;;;;;;5102442;28;20395;-60
2023/08/09 04:36:52;;;;;;;5.00;1.63;;;11.30;99.90;;;;;;5100264;28;20141;-60
2023/08/09 04:39:23;;;;;;;5.47;1.75;;;11.30;99.90;;;;;;5101900;28;20044;-59
2023/08/09 04:41:49;;;;;;;6.90;1.40;;;11.30;99.90;;;;;;5100258;28;20390;-60
2023/08/09 04:44:15;;;;;;;6.70;1.77;;;11.30;99.90;;;;;;5101901;28;20105;-59
2023/08/09 04:46:41;;;;;;;4.97;1.40;;;11.40;99.90;;;;;;5100997;28;20056;-59
2023/08/09 04:49:07;;;;;;;6.63;1.70;;;11.40;99.90;;;;;;5100719;28;20093;-59
2023/08/09 04:51:32;;;;;;;5.95;1.70;;;11.50;99.90;;;;;;5101950;28;20634;-59
2023/08/09 04:53:58;;;;;;;5.32;1.55;;;11.50;99.90;;;;;;5100052;28;20048;-60
2023/08/09 04:56:24;;;;;;;6.45;1.70;;;11.50;99.90;;;;;;5094098;28;20071;-59
2023/08/09 04:58:49;;;;;;;6.13;1.67;;;11.60;99.90;;;;;;5079931;28;20533;-59
2023/08/09 05:01:15;;;;;;;6.40;1.67;;;11.60;99.90;;;;;;5081130;28;20595;-60
2023/08/09 05:03:41;;;;;;;3.72;1.40;;;11.80;99.90;;;;;;5080133;28;20044;-59
2023/08/09 05:06:08;;;;;;;6.68;1.65;;;11.70;99.90;;;;;;5080183;28;20043;-60
2023/08/09 05:08:34;;;;;;;7.88;1.55;;;11.70;99.90;;;;;;5081236;28;20131;-59
2023/08/09 05:10:59;;;;;;;6.70;1.80;;;11.80;99.90;;;;;;5079555;28;20609;-60
2023/08/09 05:13:25;;;;;;;5.35;1.60;;;11.90;99.90;;;;;;5081307;28;20057;-59
2023/08/09 05:15:51;;;;;;;5.15;1.60;;;12.00;99.90;;;;;;5079453;28;20041;-59
2023/08/09 05:18:17;;;;;;;4.47;1.30;;;11.90;99.90;;;;;;5080540;28;20039;-60
2023/08/09 05:20:43;;;;;;;6.68;1.58;;;12.00;99.90;;;;;;5079836;28;20082;-59
2023/08/09 05:23:08;;;;;;;5.47;1.70;;;12.20;99.90;;;;;;5079557;28;20049;-59
2023/08/09 05:25:34;;;;;;;7.47;1.55;;;12.20;99.90;;;;;;5080697;28;20761;-59
2023/08/09 05:28:00;;;;;;;7.30;1.60;;;12.30;99.90;;;;;;5079095;28;20443;-60
2023/08/09 05:30:26;;;;;;;6.60;1.92;;;12.30;99.90;;;;;;5081090;28;20619;-57
2023/08/09 05:32:51;;;;;;;5.45;1.83;;;12.30;99.90;;;;;;5078990;28;20048;-59
2023/08/09 05:35:17;;;;;;;4.95;1.52;;;12.50;99.90;;;;;;5080546;28;20040;-59
2023/08/09 05:37:43;;;;;;;4.50;1.50;;;12.60;99.90;;;;;;5079575;28;20047;-59
2023/08/09 05:40:10;;;;;;;6.07;1.60;;;12.70;99.90;;;;;;5080233;28;20081;-60
2023/08/09 05:42:36;;;;;;;4.97;1.55;;;12.70;99.90;;;;;;5080575;28;20047;-59
2023/08/09 05:45:02;;;;;;;5.28;1.50;;;12.80;99.90;;;;;;5078458;28;20056;-59
2023/08/09 05:47:28;;;;;;;5.15;1.67;;;12.90;99.90;;;;;;5080977;28;20045;-60
2023/08/09 05:49:54;;;;;;;7.97;1.35;;;12.90;99.90;;;;;;5078293;28;20033;-60
2023/08/09 05:52:19;;;;;;;3.72;1.30;;;13.00;99.90;;;;;;5080243;28;20079;-59
2023/08/09 05:54:46;;;;;;;3.15;1.33;;;13.10;99.90;;;;;;5061183;28;20044;-59
2023/08/09 05:57:12;;;;;;;7.75;1.38;;;13.20;99.90;;;;;;5094509;28;20059;-59
2023/08/09 05:59:39;;;;;;;3.83;1.20;;;13.30;99.90;;;;;;5100397;28;20099;-59
2023/08/09 06:02:06;;;;;;;5.65;1.50;;;13.40;99.90;;;;;;5098611;28;20549;-58
2023/08/09 06:04:33;;;;;;;7.13;1.58;;;13.40;99.90;;;;;;5101077;28;20050;-57
2023/08/09 06:06:58;;;;;;;7.32;1.50;;;13.50;99.90;;;;;;5098336;28;20047;-58
2023/08/09 06:09:24;;;;;;;5.47;1.42;;;13.60;99.90;;;;;;5100376;28;20118;-58
2023/08/09 06:11:50;;;;;;;4.30;1.30;;;13.70;99.90;;;;;;5098679;28;20032;-58
2023/08/09 06:14:16;;;;;;;4.88;1.55;;;13.80;99.90;;;;;;5099846;28;20040;-58
2023/08/09 06:16:45;;;;;;;5.25;1.33;;;13.90;99.90;;;;;;5099827;28;20043;-57
2023/08/09 06:19:11;;;;;;;4.82;1.55;;;14.00;99.90;;;;;;5098058;28;20510;-58
2023/08/09 06:21:38;;;;;;;7.32;1.42;;;14.00;99.90;;;;;;5100839;28;20066;-58
2023/08/09 06:24:05;;;;;;;3.35;1.33;;;14.20;99.90;;;;;;5097898;28;20531;-57
2023/08/09 06:26:34;;;;;;;4.43;1.40;;;14.30;99.90;;;;;;5100373;28;20082;-58
2023/08/09 06:29:00;;;;;;;5.57;1.27;;;14.20;99.90;;;;;;5098300;28;20050;-58
2023/08/09 06:31:27;;;;;;;5.50;1.40;;;14.30;99.90;;;;;;5099445;28;20040;-58
2023/08/09 06:33:54;;;;;;;8.15;1.35;;;14.50;99.90;;;;;;5099450;28;20055;-58
2023/08/09 06:36:19;;;;;;;3.85;1.25;;;14.60;99.90;;;;;;5097184;28;20495;-58
2023/08/09 06:38:45;;;;;;;4.90;1.50;;;14.70;99.90;;;;;;5081928;28;20066;-58
2023/08/09 06:41:11;;;;;;;5.22;1.60;;;14.70;99.90;;;;;;5097748;28;20044;-58
2023/08/09 06:43:36;;;;;;;5.63;1.70;;;14.80;99.90;;;;;;5081722;28;20162;-58
2023/08/09 06:46:02;;;;;;;4.65;1.38;;;14.90;99.90;;;;;;5097904;28;20059;-58
2023/08/09 06:48:29;;;;;;;4.13;1.92;;;15.00;99.90;;;;;;5099143;28;20119;-58
2023/08/09 06:50:57;;;;;;;4.95;1.50;;;15.00;99.90;;;;;;5098525;28;20044;-58
2023/08/09 06:53:23;;;;;;;5.13;1.73;;;15.10;99.90;;;;;;5097931;28;20063;-58
2023/08/09 06:55:49;;;;;;;5.90;1.70;;;15.10;99.90;;;;;;5096954;28;20135;-58
2023/08/09 06:58:14;;;;;;;6.15;1.40;;;15.20;99.90;;;;;;5076949;28;20052;-58
2023/08/09 07:00:40;;;;;;;5.47;1.50;;;15.30;99.90;;;;;;5079391;28;20121;-57
2023/08/09 07:03:06;;;;;;;7.75;1.60;;;15.30;99.90;;;;;;5077190;28;20040;-59
2023/08/09 07:05:32;;;;;;;7.68;2.00;;;15.50;99.90;;;;;;5079268;28;20044;-58
2023/08/09 07:07:57;;;;;;;6.30;1.42;;;15.50;99.90;;;;;;5077902;28;20048;-57
2023/08/09 07:10:27;;;;;;;4.90;1.52;;;15.50;99.90;;;;;;5078046;28;20120;-58
2023/08/09 07:12:52;;;;;;;7.10;1.50;;;15.70;99.90;;;;;;5078990;28;20083;-58
2023/08/09 07:15:18;;;;;;;6.88;1.83;;;15.80;99.90;;;;;;5076632;28;20048;-58
2023/08/09 07:17:44;;;;;;;7.68;1.83;;;15.70;99.90;;;;;;5079221;28;20090;-58
2023/08/09 07:20:11;;;;;;;7.20;1.35;;;15.80;99.90;;;;;;5076552;28;20041;-58
2023/08/09 07:22:41;;;;;;;6.50;1.58;;;15.90;99.90;;;;;;5078865;28;20059;-58
2023/08/09 07:25:10;;;;;;;4.43;1.52;;;16.00;99.90;;;;;;5077766;28;20043;-58
2023/08/09 07:27:44;;;;;;;5.50;1.70;;;16.00;99.90;;;;;;5077585;28;20041;-58
2023/08/09 07:30:11;;;;;;;5.93;1.50;;;16.20;99.90;;;;;;5079098;28;20044;-58
2023/08/09 07:32:38;;;;;;;5.78;1.48;;;16.20;99.90;;;;;;5076490;28;20118;-58
2023/08/09 07:35:05;;;;;;;5.03;1.38;;;16.20;99.90;;;;;;5079050;28;20041;-58
2023/08/09 07:37:30;;;;;;;6.45;1.30;;;16.30;99.90;;;;;;5076961;28;20040;-58
2023/08/09 07:39:56;;;;;;;10.82;1.60;;;16.40;99.90;;;;;;5078401;28;20037;-59
2023/08/09 07:42:22;;;;;;;6.05;1.70;;;16.50;99.90;;;;;;5077787;28;20068;-57
2023/08/09 07:44:47;;;;;;;3.25;0.98;;;16.60;99.90;;;;;;5077457;28;20076;-58
2023/08/09 07:47:13;;;;;;;6.32;1.48;;;16.80;99.90;;;;;;5078470;28;20606;-58
2023/08/09 07:49:39;;;;;;;5.43;1.20;;;16.80;99.90;;;;;;5076207;28;20458;-58
2023/08/09 07:52:05;;;;;;;4.80;1.20;;;16.80;99.60;;;;;;5078165;28;20044;-58
2023/08/09 07:54:30;;;;;;;4.95;1.10;;;16.90;99.90;;;;;;5076577;28;20047;-58
2023/08/09 07:56:56;;;;;;;4.32;1.48;;;16.90;99.90;;;;;;5090804;28;20051;-58
2023/08/09 07:59:21;;;;;;;5.60;1.40;;;17.00;99.90;;;;;;5097329;28;20040;-58
2023/08/09 08:01:48;;;;;;;6.05;1.20;;;17.00;98.80;;;;;;5097761;28;20050;-59
2023/08/09 08:04:14;;;;;;;5.50;1.42;;;17.10;99.90;;;;;;5098583;28;20052;-58
2023/08/09 08:06:39;;;;;;;5.28;1.10;;;17.10;98.50;;;;;;5096597;28;20070;-58
2023/08/09 08:09:06;;;;;;;3.40;1.88;;;17.20;99.90;;;;;;5098550;28;20440;-58
2023/08/09 08:11:34;;;;;;;7.25;1.52;;;17.20;96.80;;;;;;5096674;28;20059;-58
2023/08/09 08:13:59;;;;;;;6.53;1.45;;;17.40;99.80;;;;;;5098057;28;20047;-58
2023/08/09 08:16:25;;;;;;;6.80;1.20;;;17.40;94.90;;;;;;5097416;28;20123;-58
2023/08/09 08:18:51;;;;;;;6.03;1.77;;;17.60;96.00;;;;;;5097323;28;20090;-58
2023/08/09 08:21:17;;;;;;;5.15;1.33;;;17.60;90.50;;;;;;5098368;28;20047;-58
2023/08/09 08:23:42;;;;;;;4.13;1.40;;;17.70;96.10;;;;;;5096573;28;20563;-58
2023/08/09 08:26:09;;;;;;;3.58;1.30;;;17.30;93.10;;;;;;5098138;28;20100;-58
2023/08/09 08:28:35;;;;;;;5.13;1.30;;;17.30;95.80;;;;;;5096592;28;20097;-58
2023/08/09 08:31:05;;;;;;;5.15;1.10;;;17.30;96.80;;;;;;5097997;28;20056;-58
2023/08/09 08:33:30;;;;;;;5.00;1.30;;;17.20;93.20;;;;;;5097231;28;20055;-58
2023/08/09 08:35:56;;;;;;;5.70;1.30;;;17.20;90.60;;;;;;5097266;28;20036;-58
2023/08/09 08:38:23;;;;;;;3.88;1.13;;;17.40;93.30;;;;;;5098328;28;20055;-58
2023/08/09 08:40:48;;;;;;;5.65;1.27;;;17.60;97.40;;;;;;5096339;28;20403;-58
2023/08/09 08:43:14;;;;;;;4.18;1.15;;;17.40;96.90;;;;;;5098479;28;20364;-58
2023/08/09 08:45:40;;;;;;;5.82;1.30;;;17.70;94.90;;;;;;5096225;28;20184;-58
2023/08/09 08:48:08;;;;;;;4.53;1.00;;;17.80;95.00;;;;;;5097804;28;20044;-55
2023/08/09 08:50:37;;;;;;;5.22;1.20;;;17.70;91.20;;;;;;5096748;28;20108;-58
2023/08/09 08:53:04;;;;;;;4.95;1.10;;;17.50;82.40;;;;;;5097243;28;20044;-58
2023/08/09 08:55:30;;;;;;;4.63;1.10;;;17.30;81.30;;;;;;5097422;28;20499;-58
2023/08/09 08:57:56;;;;;;;5.55;1.10;;;17.20;75.10;;;;;;5076061;28;20057;-58
2023/08/09 09:00:23;;;;;;;3.42;1.10;;;17.40;79.10;;;;;;5081154;28;20053;-58
2023/08/09 09:02:49;;;;;;;5.35;1.23;;;17.40;74.20;;;;;;5079708;28;20044;-58
2023/08/09 09:05:18;;;;;;;4.70;1.30;;;17.40;74.00;;;;;;5081150;28;20047;-58
2023/08/09 09:07:46;;;;;;;4.07;1.00;;;17.70;77.00;;;;;;5079981;28;20055;-58
2023/08/09 09:10:12;;;;;;;5.22;1.20;;;17.70;55.10;;;;;;5080140;28;20045;-58
2023/08/09 09:12:41;;;;;;;6.03;1.52;;;17.60;61.70;;;;;;5081319;28;20058;-58
2023/08/09 09:15:08;;;;;;;4.18;1.10;;;17.50;64.00;;;;;;5079064;28;20052;-61
2023/08/09 09:17:38;;;;;;;4.80;1.17;;;17.30;64.30;;;;;;5081311;28;20052;-58
2023/08/09 09:20:18;;;;;;;6.88;1.60;;;17.20;71.20;;;;;;5079090;28;20044;-58
2023/08/09 09:22:44;;;;;;;4.40;1.00;;;17.30;74.50;;;;;;5080560;28;20052;-58
2023/08/09 09:25:10;;;;;;;6.75;1.10;;;17.50;64.60;;;;;;5080553;28;20055;-56
2023/08/09 09:27:37;;;;;;;3.85;1.20;;;17.70;75.10;;;;;;5079392;28;20049;-58
2023/08/09 09:30:11;;;;;;;6.13;1.58;;;17.60;66.20;;;;;;5081575;28;20045;-58
2023/08/09 09:32:39;;;;;;;7.90;1.95;;;17.70;74.00;;;;;;5078635;28;20556;-58
2023/08/09 09:35:06;;;;;;;4.68;1.13;;;17.70;60.90;;;;;;5080702;28;20044;-58
2023/08/09 09:37:32;;;;;;;4.95;1.10;;;17.60;61.00;;;;;;5079519;28;20053;-58
2023/08/09 09:39:58;;;;;;;4.70;1.38;;;17.50;67.30;;;;;;5080286;28;20052;-58
2023/08/09 09:42:32;;;;;;;3.28;1.10;;;17.50;72.30;;;;;;5080474;28;20040;-58
2023/08/09 09:45:07;;;;;;;5.75;1.30;;;17.70;67.50;;;;;;5078912;28;20122;-58
2023/08/09 09:47:38;;;;;;;7.47;1.58;;;18.20;67.80;;;;;;5080692;28;20515;-58
2023/08/09 09:50:08;;;;;;;3.17;1.00;;;18.30;54.30;;;;;;5078391;28;20079;-58
2023/08/09 09:52:38;;;;;;;3.75;1.10;;;18.10;56.90;;;;;;5080187;28;20040;-58
2023/08/09 09:55:05;;;;;;;4.07;1.20;;;18.30;52.90;;;;;;5079925;28;20431;-58
2023/08/09 09:57:32;;;;;;;3.92;1.10;;;18.50;53.60;;;;;;5096326;28;20081;-58
2023/08/09 09:59:59;;;;;;;4.60;1.50;;;18.40;46.90;;;;;;5100876;28;20503;-58
2023/08/09 10:02:47;;;;;;;6.03;1.63;;;18.40;53.50;;;;;;5098380;28;20048;-58
2023/08/09 10:05:21;;;;;;;3.97;1.10;;;18.30;50.40;;;;;;5100570;28;20148;-58
2023/08/09 10:07:49;;;;;;;6.03;1.25;;;18.50;55.00;;;;;;5099030;28;20051;-58
2023/08/09 10:10:16;;;;;;;5.88;1.75;;;19.00;59.40;;;;;;5099056;28;20040;-57
2023/08/09 10:12:47;;;;;;;4.55;1.40;;;19.10;31.60;;;;;;5082286;28;20040;-58
2023/08/09 10:15:16;;;;;;;3.88;1.35;;;18.80;34.30;;;;;;5098362;28;20048;-59
2023/08/09 10:17:44;;;;;;;3.35;1.00;;;18.60;41.90;;;;;;5100610;28;20047;-58
2023/08/09 10:20:11;;;;;;;4.70;1.13;;;18.40;47.10;;;;;;5098247;28;20043;-58
2023/08/09 10:22:38;;;;;;;4.65;1.13;;;18.60;44.60;;;;;;5099953;28;20036;-58
2023/08/09 10:25:05;;;;;;;5.47;1.00;;;18.80;38.80;;;;;;5099223;28;20036;-58
2023/08/09 10:27:51;;;;;;;2.50;1.00;;;19.00;39.00;;;;;;5098847;28;20044;-57
2023/08/09 10:30:19;;;;;;;5.90;1.20;;;18.70;33.60;;;;;;5100394;28;20036;-58
2023/08/09 10:32:52;;;;;;;4.70;1.52;;;18.60;32.80;;;;;;5097831;28;20441;-58
2023/08/09 10:35:50;;;;;;;3.70;1.20;;;18.40;45.90;;;;;;5099841;28;20126;-58
2023/08/09 10:38:20;;;;;;;4.05;1.20;;;18.30;43.90;;;;;;5099566;28;20044;-58
2023/08/09 10:40:54;;;;;;;3.58;1.23;;;18.40;37.30;;;;;;5097882;28;20044;-58
2023/08/09 10:43:22;;;;;;;5.03;1.08;;;18.90;47.80;;;;;;5099899;28;20040;-58
2023/08/09 10:45:50;;;;;;;6.53;1.33;;;19.00;42.00;;;;;;5097454;28;20063;-59
2023/08/09 10:48:26;;;;;;;4.55;1.10;;;18.70;40.80;;;;;;5099427;28;20051;-58
2023/08/09 10:51:12;;;;;;;4.72;1.33;;;18.50;39.40;;;;;;5098886;28;20044;-56
2023/08/09 10:53:54;;;;;;;2.58;0.90;;;18.40;41.50;;;;;;5080146;28;20626;-58
2023/08/09 10:56:31;;;;;;;4.03;1.00;;;18.80;51.30;;;;;;5092047;28;20074;-58
2023/08/09 10:59:05;;;;;;;3.58;1.17;;;18.80;37.70;;;;;;5077615;28;20037;-59
2023/08/09 11:01:35;;;;;;;4.00;1.10;;;18.70;41.20;;;;;;5078346;28;20100;-59
2023/08/09 11:04:08;;;;;;;3.70;1.10;;;18.70;41.10;;;;;;5078997;28;20055;-58
2023/08/09 11:06:42;;;;;;;4.40;1.08;;;19.10;46.90;;;;;;5058858;28;20045;-58
2023/08/09 11:09:11;;;;;;;4.35;1.50;;;19.20;49.40;;;;;;5079413;28;20127;-58
2023/08/09 11:11:37;;;;;;;5.30;1.30;;;18.90;32.20;;;;;;5077111;28;20048;-58
2023/08/09 11:14:04;;;;;;;3.78;1.13;;;18.70;39.10;;;;;;5078798;28;20519;-58
2023/08/09 11:16:30;;;;;;;2.88;0.90;;;18.50;33.90;;;;;;5078005;28;20033;-58
2023/08/09 11:19:03;;;;;;;5.30;1.30;;;18.60;29.90;;;;;;5077216;28;20076;-58
2023/08/09 11:21:41;;;;;;;4.15;1.08;;;18.60;36.30;;;;;;5078572;28;20519;-58
2023/08/09 11:24:08;;;;;;;6.35;1.17;;;18.40;36.80;;;;;;5076640;28;20066;-58
2023/08/09 11:26:58;;;;;;;4.93;1.02;;;18.40;45.60;;;;;;5060593;28;20040;-58
2023/08/09 11:29:26;;;;;;;4.45;1.15;;;18.20;54.50;;;;;;5077148;28;20080;-58
2023/08/09 11:31:54;;;;;;;5.68;1.35;;;18.00;61.70;;;;;;5077085;28;20114;-58
2023/08/09 11:34:22;;;;;;;4.32;1.20;;;17.90;66.40;;;;;;5078871;28;20040;-58
2023/08/09 11:36:50;;;;;;;2.65;1.10;;;18.10;67.30;;;;;;5076852;28;20067;-58
2023/08/09 11:39:16;;;;;;;4.07;1.17;;;18.30;66.60;;;;;;5078590;28;20174;-58
2023/08/09 11:42:03;;;;;;;5.07;1.50;;;18.20;59.30;;;;;;5076827;28;20047;-58
2023/08/09 11:44:33;;;;;;;6.70;1.40;;;18.20;56.40;;;;;;5076798;28;20091;-58
2023/08/09 11:47:01;;;;;;;3.95;1.27;;;18.10;54.20;;;;;;5078406;28;20078;-59
2023/08/09 11:49:31;;;;;;;3.85;1.30;;;18.40;54.10;;;;;;5076338;28;20052;-59
2023/08/09 11:51:57;;;;;;;4.38;1.00;;;18.50;61.70;;;;;;5078641;28;20056;-59
2023/08/09 11:54:25;;;;;;;4.20;1.20;;;18.40;44.00;;;;;;5076530;28;20380;-58
2023/08/09 11:56:53;;;;;;;4.07;1.08;;;18.60;50.50;;;;;;5089677;28;20047;-59
2023/08/09 11:59:21;;;;;;;4.18;1.02;;;18.60;36.90;;;;;;5097615;28;20036;-58
2023/08/09 12:01:50;;;;;;;4.03;1.00;;;18.50;43.80;;;;;;5097241;28;20497;-58
2023/08/09 12:04:21;;;;;;;5.25;1.42;;;18.40;46.90;;;;;;5098772;28;20086;-58
2023/08/09 12:06:55;;;;;;;4.50;1.25;;;18.60;46.80;;;;;;5096855;28;20083;-58
2023/08/09 12:09:35;;;;;;;3.30;0.90;;;18.40;42.70;;;;;;5098266;28;20082;-58
2023/08/09 12:12:12;;;;;;;4.38;1.30;;;18.30;55.60;;;;;;5097351;28;20077;-58
2023/08/09 12:14:40;;;;;;;7.22;1.42;;;18.20;49.70;;;;;;5096978;28;20537;-58
2023/08/09 12:17:06;;;;;;;5.40;1.30;;;18.10;50.90;;;;;;5098572;28;20503;-58
2023/08/09 12:19:33;;;;;;;5.25;1.50;;;18.50;45.10;;;;;;5096000;28;20102;-58
2023/08/09 12:21:59;;;;;;;6.22;1.40;;;18.80;55.00;;;;;;5098376;28;20044;-58
2023/08/09 12:24:26;;;;;;;4.43;1.10;;;18.60;27.60;;;;;;5096512;28;20036;-58
2023/08/09 12:26:52;;;;;;;4.95;2.05;;;18.80;28.60;;;;;;5097846;28;20044;-58
2023/08/09 12:29:18;;;;;;;4.53;1.17;;;18.60;19.90;;;;;;5097574;28;20082;-58
2023/08/09 12:31:44;;;;;;;4.00;1.05;;;18.50;26.40;;;;;;5097127;28;20048;-58
2023/08/09 12:34:11;;;;;;;5.47;1.30;;;18.90;21.40;;;;;;5099731;28;20036;-58
2023/08/09 12:36:38;;;;;;;5.10;1.27;;;19.10;22.60;;;;;;5100537;28;20044;-58
2023/08/09 12:39:04;;;;;;;5.30;1.27;;;19.10;27.50;;;;;;5102248;28;20040;-58
2023/08/09 12:41:30;;;;;;;4.97;1.25;;;19.20;32.60;;;;;;5100547;28;20055;-58
2023/08/09 12:43:56;;;;;;;5.03;1.50;;;19.20;27.80;;;;;;5101811;28;20032;-58
2023/08/09 12:46:22;;;;;;;6.15;2.47;;;19.20;31.30;;;;;;5101107;28;20063;-57
2023/08/09 12:48:47;;;;;;;8.75;1.80;;;18.90;39.00;;;;;;5100268;28;20139;-58